Time;durP1;ratioP1;P1;durP2;ratioP2;P2;SDS_P1;SDS_P2;PMS_P1;PMS_P2;Temp;Humidity;BMP_temperature;BMP_pressure;BME280_temperature;BME280_humidity;BME280_pressure;Samples;Min_cycle;Max_cycle;Signal;HPM_P1;HPM_P2
2022/11/29 00:00:35;;;;;;;;;;;;;;;4.95;100.00;101217.88;2080659;28;29712;-73
2022/11/29 00:01:40;;;;;;;;;;;;;;;4.96;100.00;101209.00;2081816;28;20013;-73
2022/11/29 00:02:41;;;;;;;;;;;;;;;4.97;100.00;101215.19;2081028;28;33881;-73
2022/11/29 00:03:43;;;;;;;;;;;;;;;4.96;100.00;101214.31;2081514;28;34030;-73
2022/11/29 00:04:45;;;;;;;;;;;;;;;4.97;100.00;101212.53;2080985;28;42143;-73
2022/11/29 00:05:46;;;;;;;;;;;;;;;4.97;100.00;101212.53;2081935;28;19930;-72
2022/11/29 00:06:48;;;;;;;;;;;;;;;4.96;100.00;101214.31;2081067;28;35168;-71
2022/11/29 00:07:49;;;;;;;;;;;;;;;4.97;100.00;101213.44;2081462;28;31779;-73
2022/11/29 00:08:52;;;;;;;;;;;;;;;4.96;100.00;101214.31;2081906;28;19929;-71
2022/11/29 00:09:53;;;;;;;;;;;;;;;4.97;100.00;101213.44;2081590;28;29330;-71
2022/11/29 00:10:55;;;;;;;;;;;;;;;4.97;100.00;101217.84;2081153;28;30868;-74
2022/11/29 00:12:12;;;;;;;;;;;;;;;5.00;100.00;101206.38;2080627;28;40236;-73
2022/11/29 00:13:13;;;;;;;;;;;;;;;4.98;100.00;101215.19;2081339;28;31925;-73
2022/11/29 00:14:17;;;;;;;;;;;;;;;4.97;100.00;101207.22;2081335;28;37013;-73
2022/11/29 00:15:18;;;;;;;;;;;;;;;4.98;100.00;101212.53;2080790;28;36330;-73
2022/11/29 00:16:20;;;;;;;;;;;;;;;4.97;100.00;101213.44;2081319;28;34912;-73
2022/11/29 00:17:21;;;;;;;;;;;;;;;4.98;100.00;101207.25;2081788;28;20810;-73
2022/11/29 00:18:23;;;;;;;;;;;;;;;4.97;100.00;101204.56;2080930;28;37709;-73
2022/11/29 00:19:24;;;;;;;;;;;;;;;4.97;100.00;101210.78;2081474;28;34269;-73
2022/11/29 00:20:26;;;;;;;;;;;;;;;4.97;100.00;101212.53;2081198;28;31516;-73
2022/11/29 00:21:28;;;;;;;;;;;;;;;4.95;100.00;101212.56;2080850;28;31449;-73
2022/11/29 00:22:29;;;;;;;;;;;;;;;4.94;100.00;101205.47;2081480;28;39432;-73
2022/11/29 00:23:31;;;;;;;;;;;;;;;4.94;100.00;101210.78;2072287;28;34020;-73
2022/11/29 00:24:33;;;;;;;;;;;;;;;4.93;100.00;101208.97;2072532;28;38158;-73
2022/11/29 00:25:37;;;;;;;;;;;;;;;4.94;100.00;101210.78;2081144;28;38131;-73
2022/11/29 00:26:39;;;;;;;;;;;;;;;4.94;100.00;101209.91;2081859;28;19926;-71
2022/11/29 00:27:41;;;;;;;;;;;;;;;4.95;100.00;101206.34;2081577;28;25270;-72
2022/11/29 00:28:42;;;;;;;;;;;;;;;4.94;100.00;101202.81;2081939;28;19956;-72
2022/11/29 00:29:44;;;;;;;;;;;;;;;4.94;100.00;101209.91;2081401;28;32130;-71
2022/11/29 00:30:46;;;;;;;;;;;;;;;4.94;100.00;101207.25;2081125;28;27735;-71
2022/11/29 00:31:47;;;;;;;;;;;;;;;4.93;100.00;101219.59;2081257;28;28708;-71
2022/11/29 00:32:49;;;;;;;;;;;;;;;4.94;100.00;101210.78;2080718;28;29059;-72
2022/11/29 00:33:50;;;;;;;;;;;;;;;4.95;100.00;101219.59;2080107;28;39530;-73
2022/11/29 00:34:52;;;;;;;;;;;;;;;4.94;100.00;101205.47;2080336;28;37811;-73
2022/11/29 00:35:53;;;;;;;;;;;;;;;4.93;100.00;101200.16;2081576;28;31027;-73
2022/11/29 00:36:55;;;;;;;;;;;;;;;4.93;100.00;101208.97;2081290;28;35488;-71
2022/11/29 00:37:57;;;;;;;;;;;;;;;4.92;100.00;101196.63;2081290;28;35871;-71
2022/11/29 00:38:58;;;;;;;;;;;;;;;4.92;100.00;101212.53;2080391;28;35587;-72
2022/11/29 00:40:03;;;;;;;;;;;;;;;4.93;100.00;101218.72;2081860;28;19926;-71
2022/11/29 00:41:05;;;;;;;;;;;;;;;4.92;100.00;101215.19;2081128;28;36055;-71
2022/11/29 00:42:06;;;;;;;;;;;;;;;4.92;100.00;101211.66;2080977;28;37389;-71
2022/11/29 00:43:10;;;;;;;;;;;;;;;4.92;100.00;101217.84;2081630;28;21628;-71
2022/11/29 00:44:12;;;;;;;;;;;;;;;4.92;100.00;101211.66;2081198;28;41102;-71
2022/11/29 00:45:20;;;;;;;;;;;;;;;4.90;100.00;101211.66;2081698;28;19937;-71
2022/11/29 00:46:22;;;;;;;;;;;;;;;4.91;100.00;101213.41;2080810;28;33919;-73
2022/11/29 00:47:24;;;;;;;;;;;;;;;4.92;100.00;101225.81;2081082;28;33895;-73
2022/11/29 00:48:25;;;;;;;;;;;;;;;4.91;100.00;101210.75;2081088;28;37751;-73
2022/11/29 00:49:27;;;;;;;;;;;;;;;4.91;100.00;101221.34;2080776;28;29831;-73
2022/11/29 00:50:28;;;;;;;;;;;;;;;4.92;100.00;101217.84;2080679;28;42227;-73
2022/11/29 00:51:30;;;;;;;;;;;;;;;4.89;100.00;101217.81;2081291;28;26405;-71
2022/11/29 00:52:31;;;;;;;;;;;;;;;4.92;100.00;101214.31;2080678;28;34142;-72
2022/11/29 00:53:34;;;;;;;;;;;;;;;4.91;100.00;101207.22;2081138;28;33824;-71
2022/11/29 00:54:36;;;;;;;;;;;;;;;4.91;100.00;101210.75;2081119;28;32277;-72
2022/11/29 00:55:37;;;;;;;;;;;;;;;4.91;100.00;101210.75;2080465;28;34573;-72
2022/11/29 00:56:39;;;;;;;;;;;;;;;4.92;100.00;101220.50;2081320;28;29619;-73
2022/11/29 00:57:40;;;;;;;;;;;;;;;4.92;100.00;101220.50;2081092;28;30543;-73
2022/11/29 00:58:42;;;;;;;;;;;;;;;4.92;100.00;101215.19;2081220;28;30226;-72
2022/11/29 00:59:44;;;;;;;;;;;;;;;4.92;100.00;101220.50;2081413;28;29050;-73
2022/11/29 01:00:46;;;;;;;;;;;;;;;4.91;100.00;101224.00;2081215;28;19922;-73
2022/11/29 01:01:48;;;;;;;;;;;;;;;4.91;100.00;101220.47;2080942;28;35734;-73
2022/11/29 01:02:49;;;;;;;;;;;;;;;4.92;100.00;101222.28;2080964;28;30934;-73
2022/11/29 01:03:51;;;;;;;;;;;;;;;4.91;100.00;101216.06;2081248;28;30341;-73
2022/11/29 01:04:52;;;;;;;;;;;;;;;4.90;100.00;101218.69;2081112;28;29537;-73
2022/11/29 01:06:04;;;;;;;;;;;;;;;4.90;100.00;101216.94;2081606;28;39772;-73
2022/11/29 01:07:06;;;;;;;;;;;;;;;4.90;100.00;101224.91;2082120;28;19953;-73
2022/11/29 01:08:09;;;;;;;;;;;;;;;4.92;100.00;101224.94;2080755;28;35826;-73
2022/11/29 01:09:10;;;;;;;;;;;;;;;4.91;100.00;101224.00;2080783;28;35348;-73
2022/11/29 01:10:12;;;;;;;;;;;;;;;4.91;100.00;101217.81;2081660;28;19929;-73
2022/11/29 01:11:21;;;;;;;;;;;;;;;4.91;100.00;101220.47;2080739;28;36341;-73
2022/11/29 01:12:23;;;;;;;;;;;;;;;4.92;100.00;101214.31;2080617;28;38659;-73
2022/11/29 01:13:24;;;;;;;;;;;;;;;4.92;100.00;101219.63;2080839;28;38008;-73
2022/11/29 01:14:26;;;;;;;;;;;;;;;4.92;100.00;101223.16;2080918;28;37427;-73
2022/11/29 01:15:28;;;;;;;;;;;;;;;4.93;100.00;101218.72;2080734;28;31329;-72
2022/11/29 01:16:30;;;;;;;;;;;;;;;4.93;100.00;101219.59;2081400;28;20738;-72
2022/11/29 01:17:37;;;;;;;;;;;;;;;4.92;100.00;101220.50;2080907;28;37801;-72
2022/11/29 01:18:42;;;;;;;;;;;;;;;4.93;100.00;101218.72;2081488;28;26239;-73
2022/11/29 01:19:44;;;;;;;;;;;;;;;4.94;100.00;101228.47;2080830;28;35128;-73
2022/11/29 01:21:00;;;;;;;;;;;;;;;4.93;100.00;101216.94;2081081;28;31775;-73
2022/11/29 01:22:01;;;;;;;;;;;;;;;4.93;100.00;101219.59;2081486;28;20759;-73
2022/11/29 01:23:03;;;;;;;;;;;;;;;4.93;100.00;101224.91;2080986;28;33005;-73
2022/11/29 01:24:05;;;;;;;;;;;;;;;4.93;100.00;101224.03;2080888;28;30740;-73
2022/11/29 01:25:07;;;;;;;;;;;;;;;4.93;100.00;101227.56;2081009;28;31961;-73
2022/11/29 01:26:12;;;;;;;;;;;;;;;4.94;100.00;101229.34;2080948;28;31809;-73
2022/11/29 01:27:14;;;;;;;;;;;;;;;4.94;100.00;101228.47;2081461;28;20809;-73
2022/11/29 01:28:16;;;;;;;;;;;;;;;4.94;100.00;101226.69;2080781;28;34567;-73
2022/11/29 01:29:17;;;;;;;;;;;;;;;4.93;100.00;101230.22;2081272;28;32034;-72
2022/11/29 01:30:19;;;;;;;;;;;;;;;4.96;100.00;101239.97;2081302;28;19926;-73
2022/11/29 01:31:29;;;;;;;;;;;;;;;4.94;100.00;101242.59;2080649;28;33721;-73
2022/11/29 01:32:31;;;;;;;;;;;;;;;4.95;100.00;101241.75;2080740;28;31829;-73
2022/11/29 01:33:33;;;;;;;;;;;;;;;4.94;100.00;101236.44;2079737;28;37811;-73
2022/11/29 01:34:38;;;;;;;;;;;;;;;4.94;100.00;101237.31;2080999;28;20123;-72
2022/11/29 01:35:53;;;;;;;;;;;;;;;4.92;100.00;101231.09;2080691;28;33106;-73
2022/11/29 01:36:54;;;;;;;;;;;;;;;4.91;100.00;101239.06;2080849;28;40043;-73
2022/11/29 01:37:56;;;;;;;;;;;;;;;4.91;100.00;101231.97;2080663;28;37018;-73
2022/11/29 01:39:03;;;;;;;;;;;;;;;4.91;100.00;101236.41;2081188;28;19929;-73
2022/11/29 01:40:05;;;;;;;;;;;;;;;4.91;100.00;101236.41;2081144;28;27258;-73
2022/11/29 01:41:12;;;;;;;;;;;;;;;4.89;100.00;101230.22;2081346;28;20899;-72
2022/11/29 01:42:14;;;;;;;;;;;;;;;4.91;100.00;101245.25;2080477;28;32015;-73
2022/11/29 01:43:16;;;;;;;;;;;;;;;4.90;100.00;101240.81;2080193;28;32716;-73
2022/11/29 01:44:18;;;;;;;;;;;;;;;4.91;100.00;101242.59;2080655;28;25354;-73
2022/11/29 01:45:25;;;;;;;;;;;;;;;4.91;100.00;101245.25;2080746;28;35816;-72
2022/11/29 01:46:30;;;;;;;;;;;;;;;4.90;100.00;101243.47;2081330;28;20702;-72
2022/11/29 01:47:34;;;;;;;;;;;;;;;4.89;100.00;101248.78;2080590;28;40057;-73
2022/11/29 01:48:35;;;;;;;;;;;;;;;4.91;100.00;101247.00;2080177;28;36326;-73
2022/11/29 01:49:43;;;;;;;;;;;;;;;4.90;100.00;101246.13;2080516;28;30975;-73
2022/11/29 01:50:45;;;;;;;;;;;;;;;4.91;100.00;101245.25;2080942;28;31864;-72
2022/11/29 01:52:04;;;;;;;;;;;;;;;4.92;100.00;101248.81;2080868;28;32043;-73
2022/11/29 01:53:08;;;;;;;;;;;;;;;4.91;100.00;101254.97;2081369;28;19933;-72
2022/11/29 01:54:12;;;;;;;;;;;;;;;4.93;100.00;101256.75;2080837;28;29907;-73
2022/11/29 01:55:14;;;;;;;;;;;;;;;4.93;100.00;101251.44;2080800;28;19929;-72
2022/11/29 01:56:16;;;;;;;;;;;;;;;4.93;100.00;101251.44;2080542;28;39011;-73
2022/11/29 01:57:19;;;;;;;;;;;;;;;4.93;100.00;101251.44;2080541;28;31779;-72
2022/11/29 01:58:21;;;;;;;;;;;;;;;4.92;100.00;101249.69;2081070;28;20687;-73
2022/11/29 01:59:27;;;;;;;;;;;;;;;4.91;100.00;101247.88;2080666;28;30195;-72
2022/11/29 02:00:28;;;;;;;;;;;;;;;4.93;100.00;101253.22;2080312;28;36218;-73
2022/11/29 02:01:30;;;;;;;;;;;;;;;4.92;100.00;101254.09;2080735;28;32812;-72
2022/11/29 02:02:41;;;;;;;;;;;;;;;4.91;100.00;101253.19;2080481;28;29810;-73
2022/11/29 02:03:43;;;;;;;;;;;;;;;4.92;100.00;101254.09;2080177;28;34980;-73
2022/11/29 02:04:46;;;;;;;;;;;;;;;4.92;100.00;101255.00;2080539;28;34066;-73
2022/11/29 02:05:50;;;;;;;;;;;;;;;4.90;100.00;101254.09;2080190;28;37174;-73
2022/11/29 02:06:52;;;;;;;;;;;;;;;4.92;100.00;101254.09;2080456;28;32104;-72
2022/11/29 02:07:57;;;;;;;;;;;;;;;4.91;100.00;101258.50;2080442;28;34947;-73
2022/11/29 02:08:59;;;;;;;;;;;;;;;4.93;100.00;101256.75;2080907;28;31461;-72
2022/11/29 02:10:02;;;;;;;;;;;;;;;4.92;100.00;101259.41;2071521;28;32166;-72
2022/11/29 02:11:18;;;;;;;;;;;;;;;4.93;100.00;101259.41;2071963;28;31377;-72
2022/11/29 02:12:29;;;;;;;;;;;;;;;4.92;100.00;101262.94;2080447;28;19925;-72
2022/11/29 02:14:04;;;;;;;;;;;;;;;4.91;100.00;101258.50;2080496;28;33798;-72
2022/11/29 02:15:29;;;;;;;;;;;;;;;4.92;100.00;101262.06;2080549;28;33056;-72
2022/11/29 02:16:44;;;;;;;;;;;;;;;4.92;100.00;101262.06;2081036;28;37930;-72
2022/11/29 02:17:58;;;;;;;;;;;;;;;4.91;100.00;101263.81;2079899;28;35132;-72
2022/11/29 02:19:25;;;;;;;;;;;;;;;4.93;100.00;101258.53;2080444;28;41098;-72
2022/11/29 02:20:45;;;;;;;;;;;;;;;4.92;100.00;101255.00;2080479;28;36279;-72
2022/11/29 02:22:18;;;;;;;;;;;;;;;4.92;100.00;101260.28;2080162;28;41406;-72
2022/11/29 02:23:47;;;;;;;;;;;;;;;4.93;100.00;101258.53;2079916;28;38196;-72
2022/11/29 02:25:02;;;;;;;;;;;;;;;4.91;100.00;101263.81;2080746;28;33925;-72
2022/11/29 02:26:25;;;;;;;;;;;;;;;4.93;100.00;101264.69;2080395;28;31507;-72
2022/11/29 02:28:12;;;;;;;;;;;;;;;4.93;100.00;101264.69;2081383;28;19956;-72
2022/11/29 02:29:41;;;;;;;;;;;;;;;4.93;100.00;101259.41;2080338;28;36592;-72
2022/11/29 02:31:32;;;;;;;;;;;;;;;4.95;100.00;101262.97;2080026;28;37715;-72
2022/11/29 02:32:58;;;;;;;;;;;;;;;4.95;100.00;101262.06;2080427;28;19929;-72
2022/11/29 02:34:13;;;;;;;;;;;;;;;4.95;100.00;101259.41;2080125;28;40828;-72
2022/11/29 02:35:42;;;;;;;;;;;;;;;4.96;100.00;101266.50;2081306;28;19925;-72
2022/11/29 02:37:08;;;;;;;;;;;;;;;4.95;100.00;101268.28;2079998;28;40286;-72
2022/11/29 02:38:34;;;;;;;;;;;;;;;4.96;100.00;101263.84;2078181;28;36594;-72
2022/11/29 02:40:00;;;;;;;;;;;;;;;4.96;100.00;101270.03;2080417;28;34059;-72
2022/11/29 02:41:29;;;;;;;;;;;;;;;4.95;100.00;101260.31;2080484;28;35402;-72
2022/11/29 02:43:01;;;;;;;;;;;;;;;4.95;100.00;101265.63;2080283;28;31776;-72
2022/11/29 02:44:32;;;;;;;;;;;;;;;4.96;100.00;101267.38;2080986;28;19922;-72
2022/11/29 02:45:47;;;;;;;;;;;;;;;4.97;100.00;101271.81;2080476;28;39678;-72
2022/11/29 02:46:54;;;;;;;;;;;;;;;4.98;100.00;101270.94;2072050;28;25326;-72
2022/11/29 02:48:15;;;;;;;;;;;;;;;4.97;100.00;101269.16;2071693;28;33856;-72
2022/11/29 02:49:44;;;;;;;;;;;;;;;4.97;100.00;101274.47;2080526;28;36701;-72
2022/11/29 02:50:55;;;;;;;;;;;;;;;4.98;100.00;101275.34;2080639;28;32321;-72
2022/11/29 02:52:00;;;;;;;;;;;;;;;4.97;100.00;101270.91;2080046;28;39537;-72
2022/11/29 02:53:16;;;;;;;;;;;;;;;4.97;100.00;101276.22;2080629;28;21690;-72
2022/11/29 02:54:28;;;;;;;;;;;;;;;4.97;100.00;101279.78;2080188;28;39834;-72
2022/11/29 02:56:04;;;;;;;;;;;;;;;4.98;100.00;101280.66;2080166;28;19930;-72
2022/11/29 02:57:26;;;;;;;;;;;;;;;4.97;100.00;101277.13;2079822;28;41731;-72
2022/11/29 02:58:58;;;;;;;;;;;;;;;4.97;100.00;101274.47;2079990;28;34497;-72
2022/11/29 03:00:17;;;;;;;;;;;;;;;4.98;100.00;101278.88;2080439;28;36850;-72
2022/11/29 03:01:32;;;;;;;;;;;;;;;4.98;100.00;101276.22;2071771;28;33510;-72
2022/11/29 03:02:48;;;;;;;;;;;;;;;4.97;100.00;101274.47;2072467;28;19926;-72
2022/11/29 03:04:04;;;;;;;;;;;;;;;4.98;100.00;101270.94;2072209;28;33379;-72
2022/11/29 03:05:45;;;;;;;;;;;;;;;4.97;100.00;101277.13;2072756;28;19936;-73
2022/11/29 03:06:52;;;;;;;;;;;;;;;4.97;100.00;101277.13;2070502;28;33870;-72
2022/11/29 03:08:30;;;;;;;;;;;;;;;4.97;100.00;101281.53;2071928;28;33587;-72
2022/11/29 03:09:42;;;;;;;;;;;;;;;4.97;100.00;101279.78;2071882;28;34470;-72
2022/11/29 03:11:08;;;;;;;;;;;;;;;4.96;100.00;101282.41;2072259;28;36787;-73
2022/11/29 03:12:22;;;;;;;;;;;;;;;4.97;100.00;101282.44;2071417;28;43240;-72
2022/11/29 03:13:51;;;;;;;;;;;;;;;4.96;100.00;101283.31;2062808;28;29736;-72
2022/11/29 03:15:02;;;;;;;;;;;;;;;4.96;100.00;101282.41;2067236;28;38806;-73
2022/11/29 03:16:35;;;;;;;;;;;;;;;4.96;100.00;101277.13;2071484;28;32850;-72
2022/11/29 03:18:16;;;;;;;;;;;;;;;4.96;100.00;101280.66;2067397;28;35061;-73
2022/11/29 03:19:20;;;;;;;;;;;;;;;4.97;100.00;101286.84;2050563;28;37729;-70
2022/11/29 03:20:30;;;;;;;;;;;;;;;4.97;100.00;101279.78;2080318;28;36279;-73
2022/11/29 03:21:51;;;;;;;;;;;;;;;4.97;100.00;101279.78;2080097;28;33233;-73
2022/11/29 03:23:20;;;;;;;;;;;;;;;4.97;100.00;101285.09;2080098;28;37749;-73
2022/11/29 03:24:34;;;;;;;;;;;;;;;5.00;100.00;101289.50;2080608;28;32042;-73
2022/11/29 03:26:20;;;;;;;;;;;;;;;4.99;100.00;101282.44;2081082;28;20699;-73
2022/11/29 03:27:33;;;;;;;;;;;;;;;4.97;100.00;101285.09;2062547;28;41199;-73
2022/11/29 03:28:45;;;;;;;;;;;;;;;4.98;100.00;101286.84;2068658;28;37301;-73
2022/11/29 03:30:00;;;;;;;;;;;;;;;5.00;100.00;101289.50;2080274;28;40887;-73
2022/11/29 03:31:19;;;;;;;;;;;;;;;4.99;100.00;101287.75;2080283;28;26693;-72
2022/11/29 03:32:26;;;;;;;;;;;;;;;5.00;100.00;101294.81;2079910;28;38123;-72
2022/11/29 03:33:36;;;;;;;;;;;;;;;5.00;100.00;101296.59;2080835;28;19929;-72
2022/11/29 03:35:02;;;;;;;;;;;;;;;5.00;100.00;101296.59;2081475;28;20775;-72
2022/11/29 03:36:29;;;;;;;;;;;;;;;4.98;100.00;101289.50;2081705;28;19936;-72
2022/11/29 03:38:04;;;;;;;;;;;;;;;4.98;100.00;101291.28;2081782;28;19921;-73
2022/11/29 03:39:16;;;;;;;;;;;;;;;5.00;100.00;101299.25;2081671;28;32109;-73
2022/11/29 03:40:28;;;;;;;;;;;;;;;4.97;100.00;101298.34;2081529;28;39755;-73
2022/11/29 03:41:47;;;;;;;;;;;;;;;4.97;100.00;101301.00;2082347;28;19956;-73
2022/11/29 03:43:15;;;;;;;;;;;;;;;5.00;100.00;101297.47;2072928;28;31346;-72
2022/11/29 03:44:23;;;;;;;;;;;;;;;4.98;100.00;101305.41;2078179;28;31074;-72
2022/11/29 03:45:27;;;;;;;;;;;;;;;4.98;100.00;101296.59;2082173;28;20699;-73
2022/11/29 03:46:51;;;;;;;;;;;;;;;4.98;100.00;101300.13;2081210;28;36067;-72
2022/11/29 03:48:01;;;;;;;;;;;;;;;4.98;100.00;101300.13;2081730;28;19926;-72
2022/11/29 03:49:12;;;;;;;;;;;;;;;4.99;100.00;101303.69;2081280;28;28671;-72
2022/11/29 03:50:21;;;;;;;;;;;;;;;5.00;100.00;101305.44;2081768;28;35291;-73
2022/11/29 03:51:40;;;;;;;;;;;;;;;5.01;100.00;101303.66;2081447;28;33615;-73
2022/11/29 03:52:48;;;;;;;;;;;;;;;5.00;100.00;101309.88;2081139;28;39715;-72
2022/11/29 03:53:58;;;;;;;;;;;;;;;5.02;100.00;101308.09;2082401;28;19968;-72
2022/11/29 03:55:28;;;;;;;;;;;;;;;5.01;100.00;101309.88;2081243;28;40328;-72
2022/11/29 03:56:39;;;;;;;;;;;;;;;4.98;100.00;101308.06;2082056;28;19926;-72
2022/11/29 03:58:14;;;;;;;;;;;;;;;5.00;100.00;101308.09;2081308;28;40337;-73
2022/11/29 03:59:30;;;;;;;;;;;;;;;5.01;100.00;101311.63;2073219;28;22855;-73
2022/11/29 04:00:47;;;;;;;;;;;;;;;5.01;100.00;101303.66;2075041;28;31243;-73
2022/11/29 04:02:10;;;;;;;;;;;;;;;5.02;100.00;101318.72;2081198;28;35718;-72
2022/11/29 04:03:39;;;;;;;;;;;;;;;5.02;100.00;101308.09;2080952;28;40159;-73
2022/11/29 04:05:18;;;;;;;;;;;;;;;5.03;100.00;101309.91;2082079;28;20870;-73
2022/11/29 04:06:38;;;;;;;;;;;;;;;5.03;100.00;101312.53;2081561;28;34320;-73
2022/11/29 04:07:52;;;;;;;;;;;;;;;5.04;100.00;101312.53;2081164;28;33284;-72
2022/11/29 04:09:35;;;;;;;;;;;;;;;5.04;100.00;101319.59;2081479;28;34412;-73
2022/11/29 04:11:21;;;;;;;;;;;;;;;5.05;100.00;101318.75;2070013;28;37690;-73
2022/11/29 04:12:45;;;;;;;;;;;;;;;5.04;100.00;101316.97;2081492;28;37600;-73
2022/11/29 04:14:31;;;;;;;;;;;;;;;5.06;100.00;101317.84;2081717;28;36479;-73
2022/11/29 04:15:51;;;;;;;;;;;;;;;5.04;100.00;101323.13;2081435;28;33844;-73
2022/11/29 04:17:14;;;;;;;;;;;;;;;5.05;100.00;101322.28;2081791;28;19934;-73
2022/11/29 04:18:54;;;;;;;;;;;;;;;5.07;100.00;101324.94;2081287;28;34915;-73
2022/11/29 04:20:33;;;;;;;;;;;;;;;5.05;100.00;101316.97;2081833;28;29656;-73
2022/11/29 04:22:12;;;;;;;;;;;;;;;5.05;100.00;101324.06;2081272;28;40768;-73
2022/11/29 04:23:34;;;;;;;;;;;;;;;5.04;100.00;101319.59;2073232;28;19984;-72
2022/11/29 04:25:04;;;;;;;;;;;;;;;5.05;100.00;101321.41;2081433;28;35297;-72
2022/11/29 04:26:57;;;;;;;;;;;;;;;5.04;100.00;101319.59;2081775;28;19936;-73
2022/11/29 04:28:08;;;;;;;;;;;;;;;5.06;100.00;101328.47;2080773;28;37640;-73
2022/11/29 04:29:22;;;;;;;;;;;;;;;5.06;100.00;101326.72;2081336;28;36102;-73
2022/11/29 04:30:26;;;;;;;;;;;;;;;5.05;100.00;101321.41;2081282;28;37342;-73
2022/11/29 04:31:31;;;;;;;;;;;;;;;5.06;100.00;101328.47;2071937;28;38422;-73
2022/11/29 04:32:51;;;;;;;;;;;;;;;5.05;100.00;101329.34;2072472;28;38894;-73
2022/11/29 04:34:12;;;;;;;;;;;;;;;5.05;100.00;101330.25;2081152;28;34595;-73
2022/11/29 04:35:32;;;;;;;;;;;;;;;5.04;100.00;101338.19;2081154;28;30390;-73
2022/11/29 04:36:52;;;;;;;;;;;;;;;5.04;100.00;101332.88;2081518;28;32081;-73
2022/11/29 04:38:00;;;;;;;;;;;;;;;5.05;100.00;101332.88;2081061;28;37397;-72
2022/11/29 04:39:11;;;;;;;;;;;;;;;5.04;100.00;101330.22;2081313;28;20061;-72
2022/11/29 04:41:12;;;;;;;;;;;;;;;5.05;100.00;101337.31;2080507;28;31975;-73
2022/11/29 04:42:24;;;;;;;;;;;;;;;5.06;100.00;101337.34;2040066;29;34470;-72
2022/11/29 04:43:52;;;;;;;;;;;;;;;5.08;100.00;101343.53;2039789;29;41724;-73
2022/11/29 04:45:06;;;;;;;;;;;;;;;5.09;100.00;101344.41;2040282;29;28321;-73
2022/11/29 04:46:20;;;;;;;;;;;;;;;5.08;100.00;101345.28;2039191;29;41639;-73
2022/11/29 04:48:00;;;;;;;;;;;;;;;5.08;100.00;101342.63;2051983;28;36515;-73
2022/11/29 04:49:10;;;;;;;;;;;;;;;5.09;100.00;101352.38;2081233;28;36033;-73
2022/11/29 04:50:42;;;;;;;;;;;;;;;5.07;100.00;101352.34;2080871;28;38196;-72
2022/11/29 04:52:14;;;;;;;;;;;;;;;5.09;100.00;101341.75;2081021;28;35795;-72
2022/11/29 04:53:15;;;;;;;;;;;;;;;5.11;100.00;101351.50;2081069;28;36137;-73
2022/11/29 04:54:55;;;;;;;;;;;;;;;5.12;100.00;101352.41;2081020;28;35617;-73
2022/11/29 04:56:36;;;;;;;;;;;;;;;5.11;100.00;101353.28;2081039;28;39566;-73
2022/11/29 04:57:54;;;;;;;;;;;;;;;5.09;100.00;101355.91;2044192;28;31853;-72
2022/11/29 04:59:03;;;;;;;;;;;;;;;5.09;100.00;101358.56;2072210;28;31771;-72
2022/11/29 05:00:16;;;;;;;;;;;;;;;5.09;100.00;101353.25;2065530;28;19937;-72
2022/11/29 05:01:39;;;;;;;;;;;;;;;5.11;100.00;101363.88;2073710;28;36371;-72
2022/11/29 05:02:53;;;;;;;;;;;;;;;5.09;100.00;101370.94;2081670;28;19929;-73
2022/11/29 05:04:12;;;;;;;;;;;;;;;5.09;100.00;101369.19;2080672;28;19929;-73
2022/11/29 05:05:52;;;;;;;;;;;;;;;5.09;100.00;101368.31;2081684;28;19922;-73
2022/11/29 05:07:32;;;;;;;;;;;;;;;5.11;100.00;101371.84;2072180;28;20506;-73
2022/11/29 05:08:48;;;;;;;;;;;;;;;5.10;100.00;101368.31;2076379;28;37772;-72
2022/11/29 05:10:22;;;;;;;;;;;;;;;5.09;100.00;101370.94;2079613;28;35342;-73
2022/11/29 05:11:57;;;;;;;;;;;;;;;5.09;100.00;101370.94;2072002;28;35949;-72
2022/11/29 05:13:15;;;;;;;;;;;;;;;5.09;100.00;101370.94;2081240;28;34889;-73
2022/11/29 05:14:35;;;;;;;;;;;;;;;5.09;100.00;101361.22;2081077;28;34157;-73
2022/11/29 05:15:54;;;;;;;;;;;;;;;5.09;100.00;101363.00;2080989;28;37187;-73
2022/11/29 05:17:28;;;;;;;;;;;;;;;5.10;100.00;101365.66;2081225;28;30326;-73
2022/11/29 05:19:07;;;;;;;;;;;;;;;5.10;100.00;101368.31;2063442;28;20736;-72
2022/11/29 05:20:35;;;;;;;;;;;;;;;5.08;100.00;101362.13;2080344;28;41575;-73
2022/11/29 05:21:39;;;;;;;;;;;;;;;5.09;100.00;101369.19;2063421;28;33153;-73
2022/11/29 05:23:00;;;;;;;;;;;;;;;5.08;100.00;101369.16;2079640;28;40966;-73
2022/11/29 05:24:01;;;;;;;;;;;;;;;5.08;100.00;101370.06;2080880;28;34015;-72
2022/11/29 05:25:03;;;;;;;;;;;;;;;5.09;100.00;101368.31;2080715;28;29876;-72
2022/11/29 05:26:27;;;;;;;;;;;;;;;5.07;100.00;101370.94;2080620;28;33805;-72
2022/11/29 05:27:44;;;;;;;;;;;;;;;5.08;100.00;101362.13;2081230;28;19957;-72
2022/11/29 05:29:09;;;;;;;;;;;;;;;5.08;100.00;101366.50;2080047;28;34824;-72
2022/11/29 05:30:24;;;;;;;;;;;;;;;5.08;100.00;101364.75;2071924;28;33179;-72
2022/11/29 05:31:38;;;;;;;;;;;;;;;5.09;100.00;101366.53;2066652;28;20826;-72
2022/11/29 05:32:48;;;;;;;;;;;;;;;5.08;100.00;101372.72;2073850;28;23111;-73
2022/11/29 05:34:20;;;;;;;;;;;;;;;5.09;100.00;101374.47;2080900;28;19964;-72
2022/11/29 05:35:49;;;;;;;;;;;;;;;5.11;100.00;101377.16;2076877;28;19929;-73
2022/11/29 05:37:09;;;;;;;;;;;;;;;5.10;100.00;101373.63;2080848;28;38416;-72
2022/11/29 05:38:40;;;;;;;;;;;;;;;5.11;100.00;101379.81;2080789;28;38973;-72
2022/11/29 05:39:50;;;;;;;;;;;;;;;5.10;100.00;101376.28;2078387;28;40667;-73
2022/11/29 05:40:58;;;;;;;;;;;;;;;5.11;100.00;101378.03;2080807;28;31368;-72
2022/11/29 05:42:12;;;;;;;;;;;;;;;5.12;100.00;101377.16;2080271;28;34996;-72
2022/11/29 05:43:36;;;;;;;;;;;;;;;5.13;100.00;101375.41;2080403;28;33020;-72
2022/11/29 05:44:47;;;;;;;;;;;;;;;5.12;100.00;101379.81;2080236;28;38893;-72
2022/11/29 05:46:00;;;;;;;;;;;;;;;5.13;100.00;101380.69;2081070;28;19933;-73
2022/11/29 05:47:09;;;;;;;;;;;;;;;5.13;100.00;101384.28;2080856;28;30156;-72
2022/11/29 05:48:27;;;;;;;;;;;;;;;5.14;100.00;101379.84;2080882;28;37624;-72
2022/11/29 05:49:57;;;;;;;;;;;;;;;5.13;100.00;101381.63;2081633;28;19930;-72
2022/11/29 05:51:16;;;;;;;;;;;;;;;5.15;100.00;101384.25;2080721;28;35407;-72
2022/11/29 05:52:23;;;;;;;;;;;;;;;5.15;100.00;101393.13;2080634;28;31668;-72
2022/11/29 05:53:41;;;;;;;;;;;;;;;5.16;100.00;101392.22;2080506;28;37452;-72
2022/11/29 05:54:48;;;;;;;;;;;;;;;5.17;100.00;101393.13;2080741;28;35994;-73
2022/11/29 05:56:10;;;;;;;;;;;;;;;5.16;100.00;101392.22;2080767;28;34290;-73
2022/11/29 05:57:27;;;;;;;;;;;;;;;5.19;100.00;101396.69;2080698;28;38737;-73
2022/11/29 05:58:50;;;;;;;;;;;;;;;5.18;100.00;101400.22;2079180;28;38249;-72
2022/11/29 05:59:55;;;;;;;;;;;;;;;5.18;100.00;101402.84;2081141;28;31529;-72
2022/11/29 06:01:19;;;;;;;;;;;;;;;5.19;100.00;101407.31;2080489;28;36031;-72
2022/11/29 06:02:58;;;;;;;;;;;;;;;5.19;100.00;101401.09;2080933;28;33918;-73
2022/11/29 06:04:02;;;;;;;;;;;;;;;5.20;100.00;101408.19;2080217;28;33006;-73
2022/11/29 06:05:22;;;;;;;;;;;;;;;5.18;100.00;101416.13;2080020;28;39533;-73
2022/11/29 06:06:53;;;;;;;;;;;;;;;5.20;100.00;101417.03;2080551;28;33976;-73
2022/11/29 06:08:21;;;;;;;;;;;;;;;5.21;100.00;101416.16;2081563;28;20707;-73
2022/11/29 06:09:38;;;;;;;;;;;;;;;5.21;100.00;101421.47;2080481;28;38267;-73
2022/11/29 06:10:55;;;;;;;;;;;;;;;5.21;100.00;101416.16;2080864;28;26607;-73
2022/11/29 06:12:05;;;;;;;;;;;;;;;5.21;100.00;101417.94;2079887;28;38325;-73
2022/11/29 06:13:33;;;;;;;;;;;;;;;5.21;100.00;101416.16;2081467;28;19925;-72
2022/11/29 06:14:54;;;;;;;;;;;;;;;5.21;100.00;101416.16;2068415;28;38774;-73
2022/11/29 06:16:19;;;;;;;;;;;;;;;5.22;100.00;101414.38;2072595;28;31998;-73
2022/11/29 06:17:38;;;;;;;;;;;;;;;5.22;100.00;101417.03;2072741;28;19988;-73
2022/11/29 06:19:16;;;;;;;;;;;;;;;5.22;100.00;101412.63;2072711;28;19934;-73
2022/11/29 06:20:31;;;;;;;;;;;;;;;5.24;100.00;101416.19;2062982;28;41407;-73